Time;durP1;ratioP1;P1;durP2;ratioP2;P2;SDS_P1;SDS_P2;PMS_P1;PMS_P2;Temp;Humidity;BMP_temperature;BMP_pressure;BME280_temperature;BME280_humidity;BME280_pressure;Samples;Min_cycle;Max_cycle;Signal;HPM_P1;HPM_P2
2021/12/31 00:03:05;;;;;;;3.15;1.20;;;16.80;87.10;;;;;;10455631;28;20453;-75
2021/12/31 00:08:06;;;;;;;3.53;1.30;;;16.80;87.10;;;;;;10455391;28;20382;-75
2021/12/31 00:13:07;;;;;;;2.65;1.20;;;16.80;87.10;;;;;;10455423;28;20391;-75
2021/12/31 00:18:10;;;;;;;2.65;1.17;;;16.80;87.10;;;;;;10454867;28;20489;-76
2021/12/31 00:23:15;;;;;;;2.53;1.05;;;16.80;87.10;;;;;;10454909;28;20654;-76
2021/12/31 00:28:16;;;;;;;3.57;1.40;;;16.70;87.10;;;;;;10455087;28;20131;-75
2021/12/31 00:33:18;;;;;;;2.20;1.15;;;16.70;87.10;;;;;;10454276;28;20045;-76
2021/12/31 00:38:19;;;;;;;2.13;0.98;;;16.70;87.10;;;;;;10454370;28;20037;-75
2021/12/31 00:43:21;;;;;;;2.65;1.20;;;16.70;87.10;;;;;;10454209;28;20052;-75
2021/12/31 00:48:22;;;;;;;1.73;1.00;;;16.70;87.20;;;;;;10454115;28;20041;-75
2021/12/31 00:53:24;;;;;;;2.47;1.10;;;16.70;87.20;;;;;;10453918;28;20044;-75
2021/12/31 00:58:25;;;;;;;2.90;1.10;;;16.70;87.20;;;;;;10453536;28;20060;-75
2021/12/31 01:03:27;;;;;;;2.90;1.08;;;16.70;87.20;;;;;;10454050;28;20490;-75
2021/12/31 01:08:28;;;;;;;2.35;0.95;;;16.70;87.20;;;;;;10453552;28;20242;-75
2021/12/31 01:13:35;;;;;;;2.97;1.00;;;16.70;87.20;;;;;;10453642;28;20045;-75
2021/12/31 01:23:52;;;;;;;3.20;1.05;;;16.70;87.30;;;;;;10453679;28;20049;-75
2021/12/31 01:28:53;;;;;;;3.13;1.15;;;16.60;87.20;;;;;;10453515;28;20049;-75
2021/12/31 01:33:56;;;;;;;3.22;1.23;;;16.60;87.30;;;;;;10453278;28;20071;-75
2021/12/31 01:38:57;;;;;;;1.98;0.93;;;16.60;87.30;;;;;;10453003;28;20049;-75
2021/12/31 01:43:59;;;;;;;2.70;1.15;;;16.60;87.30;;;;;;10454227;28;20060;-76
2021/12/31 01:49:01;;;;;;;1.85;0.90;;;16.60;87.30;;;;;;10460848;28;20060;-75
2021/12/31 01:54:03;;;;;;;2.05;0.82;;;16.60;87.90;;;;;;10460680;28;20124;-75
2021/12/31 01:59:04;;;;;;;3.58;1.20;;;16.60;87.40;;;;;;10460184;28;20524;-75
2021/12/31 02:04:06;;;;;;;3.33;1.10;;;16.60;87.40;;;;;;10460289;28;20493;-74
2021/12/31 02:09:07;;;;;;;3.00;1.13;;;16.60;87.40;;;;;;10460127;28;20517;-75
2021/12/31 02:14:09;;;;;;;1.83;1.00;;;16.60;87.50;;;;;;10459946;28;20413;-75
2021/12/31 02:19:11;;;;;;;2.92;0.90;;;16.60;87.50;;;;;;10459370;28;20123;-75
2021/12/31 02:24:13;;;;;;;1.77;0.93;;;16.60;87.50;;;;;;10459425;28;20138;-75
2021/12/31 02:29:15;;;;;;;3.40;1.10;;;16.50;87.50;;;;;;10459267;28;20044;-76
2021/12/31 02:34:16;;;;;;;3.35;1.10;;;16.50;87.50;;;;;;10459303;28;20057;-75
2021/12/31 02:39:17;;;;;;;1.67;0.70;;;16.50;87.50;;;;;;10424695;28;20061;-75
2021/12/31 02:44:19;;;;;;;3.55;1.02;;;16.50;87.50;;;;;;10417361;28;20049;-75
2021/12/31 02:49:23;;;;;;;2.60;0.95;;;16.50;87.60;;;;;;10417393;28;20053;-76
2021/12/31 02:54:25;;;;;;;2.72;1.00;;;16.50;87.60;;;;;;10416772;28;20056;-76
2021/12/31 02:59:26;;;;;;;1.83;0.85;;;16.50;87.60;;;;;;10417123;28;20057;-75
2021/12/31 03:04:28;;;;;;;3.35;1.10;;;16.50;87.60;;;;;;10416659;28;20049;-75
2021/12/31 03:09:29;;;;;;;3.25;1.05;;;16.50;87.60;;;;;;10416651;28;20054;-75
2021/12/31 03:14:31;;;;;;;1.83;0.85;;;16.50;87.60;;;;;;10416554;28;20053;-75
2021/12/31 03:19:32;;;;;;;3.05;1.20;;;16.50;87.60;;;;;;10415990;28;20050;-75
2021/12/31 03:24:34;;;;;;;1.63;0.88;;;16.50;87.60;;;;;;10416191;28;20061;-75
2021/12/31 03:29:35;;;;;;;3.00;1.10;;;16.40;87.60;;;;;;10415617;28;20054;-76
2021/12/31 03:34:37;;;;;;;3.08;1.17;;;16.40;87.60;;;;;;10423242;28;20068;-75
2021/12/31 03:39:38;;;;;;;2.83;0.90;;;16.40;87.70;;;;;;10456788;28;20045;-76
2021/12/31 03:44:40;;;;;;;2.17;1.00;;;16.40;87.70;;;;;;10456263;28;20060;-76
2021/12/31 03:49:41;;;;;;;2.28;1.08;;;16.40;87.70;;;;;;10455941;28;20052;-75
2021/12/31 03:54:43;;;;;;;2.70;1.15;;;16.40;87.60;;;;;;10455940;28;20060;-75
2021/12/31 03:59:44;;;;;;;2.85;1.27;;;16.40;87.80;;;;;;10455806;28;20059;-75
2021/12/31 04:04:46;;;;;;;2.28;0.80;;;16.40;87.80;;;;;;10455594;28;20060;-75
2021/12/31 04:09:47;;;;;;;3.47;1.33;;;16.40;87.80;;;;;;10454692;28;20053;-76
2021/12/31 04:14:49;;;;;;;2.45;1.20;;;16.40;87.80;;;;;;10455188;28;20053;-75
2021/12/31 04:19:54;;;;;;;1.98;0.90;;;16.40;87.80;;;;;;10454730;28;20391;-76
2021/12/31 04:24:56;;;;;;;1.52;0.90;;;16.40;87.80;;;;;;10455093;28;20191;-75
2021/12/31 04:29:57;;;;;;;1.98;0.93;;;16.40;87.80;;;;;;10454546;28;20049;-75
2021/12/31 04:34:59;;;;;;;3.08;1.02;;;16.40;87.90;;;;;;10454521;28;20049;-75
2021/12/31 04:40:00;;;;;;;2.50;1.10;;;16.40;87.90;;;;;;10454516;28;20045;-76
2021/12/31 04:45:02;;;;;;;3.13;0.90;;;16.30;87.90;;;;;;10454706;28;20053;-75
2021/12/31 04:50:03;;;;;;;2.25;0.93;;;16.30;87.90;;;;;;10454134;28;20045;-76
2021/12/31 04:55:05;;;;;;;1.92;1.10;;;16.30;87.90;;;;;;10454064;28;20049;-75
2021/12/31 05:00:06;;;;;;;2.67;1.15;;;16.30;87.90;;;;;;10454240;28;20053;-75
2021/12/31 05:05:07;;;;;;;3.05;1.17;;;16.30;87.90;;;;;;10453802;28;20064;-75
2021/12/31 05:10:09;;;;;;;2.42;0.90;;;16.30;87.90;;;;;;10453707;28;20052;-75
2021/12/31 05:15:10;;;;;;;1.85;0.80;;;16.30;87.90;;;;;;10453681;28;20517;-75
2021/12/31 05:20:12;;;;;;;2.08;0.90;;;16.30;88.00;;;;;;10458307;28;20490;-75
2021/12/31 05:25:13;;;;;;;1.95;0.95;;;16.30;88.00;;;;;;10461946;28;20052;-75
2021/12/31 05:30:15;;;;;;;2.63;0.85;;;16.30;88.10;;;;;;10461582;28;20040;-75
2021/12/31 05:35:16;;;;;;;2.33;1.23;;;16.30;88.10;;;;;;10461367;28;20044;-75
2021/12/31 05:40:18;;;;;;;2.40;0.90;;;16.30;88.20;;;;;;10461447;28;20049;-75
2021/12/31 05:45:19;;;;;;;2.42;0.90;;;16.30;88.10;;;;;;10460937;28;20508;-76
2021/12/31 05:50:28;;;;;;;1.75;0.95;;;16.20;88.10;;;;;;10460685;28;20505;-74
2021/12/31 05:55:30;;;;;;;1.48;0.70;;;16.20;88.10;;;;;;10460647;28;20136;-75
2021/12/31 06:00:31;;;;;;;2.45;0.90;;;16.20;88.10;;;;;;10460051;28;20048;-75
2021/12/31 06:05:33;;;;;;;2.30;1.00;;;16.20;88.20;;;;;;10460277;28;20064;-75
2021/12/31 06:10:34;;;;;;;2.15;0.88;;;16.20;88.20;;;;;;10460038;28;20052;-75
2021/12/31 06:15:35;;;;;;;2.15;0.90;;;16.20;88.20;;;;;;10460129;28;20041;-75
2021/12/31 06:20:37;;;;;;;2.38;1.02;;;16.20;88.20;;;;;;10459604;28;20095;-75
2021/12/31 06:25:38;;;;;;;2.97;0.95;;;16.20;88.20;;;;;;10459728;28;20053;-76
2021/12/31 06:30:40;;;;;;;2.45;0.90;;;16.20;88.20;;;;;;10458874;28;20052;-75
2021/12/31 06:35:41;;;;;;;1.70;0.70;;;16.20;88.20;;;;;;10459198;28;20041;-76
2021/12/31 06:40:43;;;;;;;1.33;0.80;;;16.20;88.20;;;;;;10459128;28;20044;-75
2021/12/31 06:45:44;;;;;;;2.15;1.05;;;16.20;88.30;;;;;;10458675;28;20045;-75
2021/12/31 06:50:46;;;;;;;1.95;0.90;;;16.20;88.30;;;;;;10458646;28;20056;-75
2021/12/31 06:55:47;;;;;;;1.65;0.80;;;16.20;88.30;;;;;;10458385;28;20053;-75
2021/12/31 07:00:49;;;;;;;2.50;0.90;;;16.20;88.30;;;;;;10457897;28;20060;-76
2021/12/31 07:05:50;;;;;;;2.00;0.80;;;16.20;88.30;;;;;;10458130;28;20151;-75
2021/12/31 07:10:52;;;;;;;2.22;1.13;;;16.20;88.40;;;;;;10457668;28;20056;-75
2021/12/31 07:15:54;;;;;;;1.70;0.73;;;16.20;88.30;;;;;;10457599;28;20068;-75
2021/12/31 07:20:55;;;;;;;1.35;0.68;;;16.10;88.30;;;;;;10457231;28;20045;-74
2021/12/31 07:25:57;;;;;;;1.65;0.90;;;16.10;88.40;;;;;;10457397;28;20045;-75
2021/12/31 07:30:59;;;;;;;1.77;0.90;;;16.10;88.40;;;;;;10433648;28;20085;-75
2021/12/31 07:36:01;;;;;;;1.52;0.80;;;16.10;88.40;;;;;;10415692;28;20120;-75
2021/12/31 07:41:02;;;;;;;1.88;0.70;;;16.10;88.40;;;;;;10414736;28;20049;-74
2021/12/31 07:46:04;;;;;;;2.22;0.77;;;16.10;88.50;;;;;;10415385;28;20050;-75
2021/12/31 07:51:05;;;;;;;1.65;0.85;;;16.10;88.50;;;;;;10415023;28;20080;-75
2021/12/31 07:56:07;;;;;;;1.00;0.60;;;16.10;88.60;;;;;;10414819;28;20050;-75
2021/12/31 08:01:08;;;;;;;1.13;0.70;;;16.10;88.60;;;;;;10414182;28;20053;-75
2021/12/31 08:06:10;;;;;;;1.60;0.80;;;16.10;88.60;;;;;;10414408;28;20052;-75
2021/12/31 08:11:11;;;;;;;1.13;0.55;;;16.10;88.60;;;;;;10414274;28;20041;-76
2021/12/31 08:16:13;;;;;;;1.40;0.73;;;16.10;88.60;;;;;;10414265;28;20052;-75
2021/12/31 08:21:14;;;;;;;2.00;0.90;;;16.10;88.60;;;;;;10413693;28;20107;-75
2021/12/31 08:26:15;;;;;;;1.90;0.90;;;16.10;88.60;;;;;;10413568;28;20104;-75
2021/12/31 08:31:17;;;;;;;1.55;0.60;;;16.10;88.60;;;;;;10450839;28;20502;-75
2021/12/31 08:36:18;;;;;;;1.50;0.73;;;16.10;88.60;;;;;;10454276;28;20049;-75
2021/12/31 08:41:20;;;;;;;1.50;0.70;;;16.10;88.60;;;;;;10454477;28;20052;-75
2021/12/31 08:46:21;;;;;;;1.20;0.60;;;16.10;88.60;;;;;;10453695;28;20056;-75
2021/12/31 08:51:23;;;;;;;1.23;0.60;;;16.10;88.60;;;;;;10454124;28;20057;-75
2021/12/31 08:56:24;;;;;;;2.00;0.90;;;16.10;88.70;;;;;;10453908;28;20045;-75
2021/12/31 09:01:26;;;;;;;3.08;0.80;;;16.10;88.70;;;;;;10453939;28;20057;-75
2021/12/31 09:06:27;;;;;;;1.88;0.70;;;16.10;88.70;;;;;;10453825;28;20053;-75
2021/12/31 09:11:29;;;;;;;1.30;0.70;;;16.10;88.70;;;;;;10453565;28;20057;-75
2021/12/31 09:16:30;;;;;;;1.20;0.50;;;16.10;88.70;;;;;;10453504;28;20064;-75
2021/12/31 09:21:32;;;;;;;1.50;0.80;;;16.10;88.80;;;;;;10453902;28;20047;-75
2021/12/31 09:26:33;;;;;;;1.33;0.75;;;16.10;88.80;;;;;;10453200;28;20391;-75
2021/12/31 09:31:35;;;;;;;1.05;0.70;;;16.10;88.70;;;;;;10453055;28;20041;-75
2021/12/31 09:36:36;;;;;;;1.25;0.60;;;16.10;88.80;;;;;;10453009;28;20041;-75
2021/12/31 09:41:38;;;;;;;1.45;0.80;;;16.10;88.80;;;;;;10453105;28;20102;-75
2021/12/31 09:46:39;;;;;;;1.02;0.82;;;16.10;88.80;;;;;;10452719;28;20049;-76
2021/12/31 09:51:41;;;;;;;1.77;0.80;;;16.10;88.80;;;;;;10453153;28;20041;-76
2021/12/31 09:56:42;;;;;;;1.75;1.00;;;16.10;88.90;;;;;;10452835;28;20099;-76
2021/12/31 10:01:44;;;;;;;1.33;0.73;;;16.00;88.80;;;;;;10452838;28;20048;-76
2021/12/31 10:06:45;;;;;;;0.77;0.65;;;16.10;88.90;;;;;;10456795;28;20085;-76
2021/12/31 10:11:46;;;;;;;1.38;0.70;;;16.10;89.00;;;;;;10460148;28;20490;-75
2021/12/31 10:16:48;;;;;;;1.33;0.88;;;16.00;88.90;;;;;;10459800;28;20486;-75
2021/12/31 10:21:51;;;;;;;1.25;0.60;;;16.10;89.00;;;;;;10459922;28;20048;-75
2021/12/31 10:26:52;;;;;;;0.80;0.60;;;16.00;88.90;;;;;;10459209;28;20049;-75
2021/12/31 10:31:53;;;;;;;1.60;0.70;;;16.00;88.90;;;;;;10459198;28;20041;-75
2021/12/31 10:36:55;;;;;;;0.93;0.60;;;16.00;88.90;;;;;;10459089;28;20099;-75
2021/12/31 10:41:56;;;;;;;1.73;0.80;;;16.00;89.00;;;;;;10459225;28;20049;-75
2021/12/31 10:46:58;;;;;;;1.38;0.80;;;16.00;89.00;;;;;;10458643;28;20053;-75
2021/12/31 10:51:59;;;;;;;1.63;0.70;;;16.00;89.00;;;;;;10458749;28;20060;-75
2021/12/31 10:57:01;;;;;;;1.30;0.80;;;16.00;89.00;;;;;;10458348;28;20079;-74
2021/12/31 11:02:02;;;;;;;1.40;0.90;;;16.00;89.00;;;;;;10458567;28;20111;-75
2021/12/31 11:07:04;;;;;;;1.05;0.80;;;16.00;89.00;;;;;;10458022;28;20041;-75
2021/12/31 11:12:05;;;;;;;0.95;0.68;;;16.00;89.00;;;;;;10458255;28;20045;-75
2021/12/31 11:17:07;;;;;;;1.05;0.70;;;16.00;89.00;;;;;;10457449;28;20045;-75
2021/12/31 11:22:08;;;;;;;0.85;0.70;;;16.00;89.00;;;;;;10457743;28;20060;-75
2021/12/31 11:27:10;;;;;;;1.35;0.80;;;16.00;89.00;;;;;;10456994;28;20049;-75
2021/12/31 11:32:11;;;;;;;1.33;0.85;;;16.00;89.00;;;;;;10457269;28;20049;-75
2021/12/31 11:37:13;;;;;;;1.15;0.90;;;15.90;88.90;;;;;;10456823;28;20053;-75
2021/12/31 11:42:14;;;;;;;1.30;0.75;;;15.90;89.00;;;;;;10456847;28;20045;-75
2021/12/31 11:47:16;;;;;;;1.27;0.73;;;15.90;89.00;;;;;;10456221;28;20049;-75
2021/12/31 11:52:20;;;;;;;1.00;0.90;;;15.90;89.00;;;;;;10456190;28;20049;-75
2021/12/31 11:57:21;;;;;;;1.45;1.00;;;15.90;89.00;;;;;;10455885;28;20060;-75
2021/12/31 12:02:23;;;;;;;1.20;0.85;;;15.90;88.90;;;;;;10455639;28;20052;-74
2021/12/31 12:07:24;;;;;;;1.33;0.90;;;15.90;88.90;;;;;;10456387;28;20045;-76
2021/12/31 12:12:27;;;;;;;1.33;0.82;;;15.90;88.90;;;;;;10455475;28;20063;-76
2021/12/31 12:17:28;;;;;;;1.45;1.00;;;15.90;88.90;;;;;;10454911;28;20085;-75
2021/12/31 12:22:31;;;;;;;1.23;0.90;;;15.90;88.90;;;;;;10455028;28;20044;-76
2021/12/31 12:27:32;;;;;;;0.90;0.80;;;15.90;88.90;;;;;;10454120;28;20057;-76
2021/12/31 12:32:37;;;;;;;1.58;1.00;;;15.90;88.90;;;;;;10454731;28;20410;-75
2021/12/31 12:37:39;;;;;;;0.77;0.70;;;15.90;88.90;;;;;;10454436;28;20041;-76
2021/12/31 12:42:40;;;;;;;1.65;0.82;;;15.90;88.90;;;;;;10454527;28;20057;-75
2021/12/31 12:47:41;;;;;;;1.45;0.90;;;15.90;89.00;;;;;;10453953;28;20525;-75
2021/12/31 12:52:44;;;;;;;0.98;0.75;;;15.90;88.90;;;;;;10454092;28;20041;-75
2021/12/31 12:57:45;;;;;;;1.55;0.80;;;15.90;88.90;;;;;;10453898;28;20045;-75
2021/12/31 13:02:47;;;;;;;1.45;0.80;;;15.90;88.90;;;;;;10453940;28;20504;-75
2021/12/31 13:07:51;;;;;;;1.42;0.88;;;15.90;88.90;;;;;;10453783;28;20509;-75
2021/12/31 13:12:53;;;;;;;1.20;0.90;;;15.90;88.90;;;;;;10453903;28;20052;-76
2021/12/31 13:17:54;;;;;;;1.45;0.80;;;15.80;88.90;;;;;;10453538;28;20057;-74
2021/12/31 13:22:56;;;;;;;1.50;1.00;;;15.80;88.90;;;;;;10453338;28;20045;-75
2021/12/31 13:27:57;;;;;;;1.25;1.00;;;15.80;88.90;;;;;;10453318;28;20049;-75
2021/12/31 13:32:59;;;;;;;1.08;0.85;;;15.80;88.90;;;;;;10453419;28;20045;-75
2021/12/31 13:38:00;;;;;;;1.75;0.90;;;15.80;89.00;;;;;;10453091;28;20069;-75
2021/12/31 13:43:02;;;;;;;1.23;1.00;;;15.80;88.90;;;;;;10459345;28;20136;-75
2021/12/31 13:48:03;;;;;;;2.00;1.10;;;15.80;88.90;;;;;;10460841;28;20080;-75
2021/12/31 13:53:05;;;;;;;1.00;0.90;;;15.80;89.00;;;;;;10460697;28;20052;-75
2021/12/31 13:58:06;;;;;;;1.60;1.20;;;15.80;89.00;;;;;;10460662;28;20088;-74
2021/12/31 14:03:08;;;;;;;0.80;0.70;;;15.80;89.00;;;;;;10460387;28;20119;-75
2021/12/31 14:08:30;;;;;;;1.48;1.08;;;15.80;89.00;;;;;;10460567;28;20045;-75
2021/12/31 14:13:31;;;;;;;1.38;1.10;;;15.80;89.10;;;;;;10459956;28;20091;-75
2021/12/31 14:18:33;;;;;;;1.40;1.10;;;15.80;89.10;;;;;;10459605;28;20387;-75
2021/12/31 14:23:34;;;;;;;1.48;1.10;;;15.80;89.20;;;;;;10459878;28;20076;-74
2021/12/31 14:28:37;;;;;;;1.80;1.00;;;15.70;89.20;;;;;;10459716;28;20058;-75
2021/12/31 14:33:38;;;;;;;1.15;1.05;;;15.80;89.20;;;;;;10459305;28;20208;-75
2021/12/31 14:38:40;;;;;;;1.60;1.20;;;15.70;89.30;;;;;;10459047;28;20048;-75
2021/12/31 14:43:41;;;;;;;1.40;1.00;;;15.70;89.40;;;;;;10458914;28;20061;-75
2021/12/31 14:48:43;;;;;;;1.45;1.02;;;15.70;89.40;;;;;;10458917;28;20056;-75
2021/12/31 14:53:44;;;;;;;1.67;1.25;;;15.70;89.40;;;;;;10458400;28;20049;-75
2021/12/31 14:58:46;;;;;;;1.35;1.00;;;15.70;89.60;;;;;;10458211;28;20045;-75
2021/12/31 15:03:47;;;;;;;1.25;1.02;;;15.70;89.60;;;;;;10457903;28;20057;-74
2021/12/31 15:08:51;;;;;;;1.23;1.05;;;15.70;89.50;;;;;;10457859;28;20052;-75
2021/12/31 15:13:53;;;;;;;1.60;1.33;;;15.70;89.60;;;;;;10457765;28;20049;-74
2021/12/31 15:18:54;;;;;;;1.80;1.38;;;15.70;89.70;;;;;;10440709;28;20361;-74
2021/12/31 15:23:56;;;;;;;1.45;1.00;;;15.70;89.60;;;;;;10416065;28;20053;-75
2021/12/31 15:28:57;;;;;;;1.75;1.35;;;15.70;89.60;;;;;;10415772;28;20053;-75
2021/12/31 15:33:59;;;;;;;1.98;1.40;;;15.60;89.70;;;;;;10415757;28;20072;-74
2021/12/31 15:39:00;;;;;;;2.47;1.15;;;15.60;89.80;;;;;;10416056;28;20049;-75
2021/12/31 15:44:02;;;;;;;1.85;1.40;;;15.60;89.70;;;;;;10415512;28;20049;-74
2021/12/31 15:49:03;;;;;;;2.17;1.30;;;15.60;89.80;;;;;;10414859;28;20053;-74
2021/12/31 15:54:04;;;;;;;1.92;1.23;;;15.60;89.80;;;;;;10415006;28;20065;-74
2021/12/31 15:59:06;;;;;;;2.45;1.30;;;15.60;89.80;;;;;;10414842;28;20124;-75
2021/12/31 16:04:07;;;;;;;1.98;1.33;;;15.60;89.80;;;;;;10413440;28;20046;-75
2021/12/31 16:09:10;;;;;;;1.60;1.40;;;15.60;89.90;;;;;;10414359;28;20068;-74
2021/12/31 16:14:11;;;;;;;2.40;1.60;;;15.60;89.90;;;;;;10413906;28;20081;-75
2021/12/31 16:19:13;;;;;;;2.53;1.67;;;15.60;90.00;;;;;;10444608;28;20053;-74
2021/12/31 16:24:15;;;;;;;2.28;1.48;;;15.60;89.90;;;;;;10455278;28;20057;-74
2021/12/31 16:29:16;;;;;;;2.47;1.63;;;15.60;90.00;;;;;;10454979;28;20383;-74
2021/12/31 16:34:18;;;;;;;2.95;1.73;;;15.60;90.00;;;;;;10454625;28;20460;-74
2021/12/31 16:39:19;;;;;;;2.53;1.60;;;15.60;90.00;;;;;;10454455;28;20465;-74
2021/12/31 16:44:21;;;;;;;2.55;1.60;;;15.60;90.00;;;;;;10454211;28;20525;-74
2021/12/31 16:49:22;;;;;;;2.25;1.67;;;15.50;90.00;;;;;;10454069;28;20493;-74
2021/12/31 16:54:24;;;;;;;2.25;1.60;;;15.50;90.00;;;;;;10454580;28;20496;-74
2021/12/31 16:59:25;;;;;;;4.15;1.90;;;15.50;90.00;;;;;;10453939;28;20053;-74
2021/12/31 17:04:27;;;;;;;3.08;1.77;;;15.50;90.00;;;;;;10453681;28;20052;-75
2021/12/31 17:09:28;;;;;;;2.95;1.50;;;15.50;90.00;;;;;;10453942;28;20064;-74
2021/12/31 17:14:29;;;;;;;2.95;1.95;;;15.50;90.10;;;;;;10455661;28;20045;-74
2021/12/31 17:19:31;;;;;;;2.85;1.70;;;15.50;90.10;;;;;;10462242;28;20053;-75
2021/12/31 17:24:32;;;;;;;4.07;1.92;;;15.50;90.00;;;;;;10462116;28;20059;-74
2021/12/31 17:29:34;;;;;;;3.13;1.85;;;15.50;90.00;;;;;;10461545;28;20042;-74
2021/12/31 17:34:35;;;;;;;3.10;1.80;;;15.50;90.10;;;;;;10461874;28;20056;-74
2021/12/31 17:39:37;;;;;;;3.28;1.77;;;15.50;90.10;;;;;;10461335;28;20103;-74
2021/12/31 17:44:38;;;;;;;4.25;2.10;;;15.50;90.10;;;;;;10461462;28;20044;-74
2021/12/31 17:49:41;;;;;;;3.00;1.98;;;15.50;90.10;;;;;;10460677;28;20552;-74
2021/12/31 17:54:42;;;;;;;3.45;1.85;;;15.50;90.10;;;;;;10460748;28;20056;-74
2021/12/31 17:59:45;;;;;;;3.15;2.10;;;15.50;90.10;;;;;;10460664;28;20612;-72
2021/12/31 18:04:47;;;;;;;3.28;1.95;;;15.50;90.10;;;;;;10460405;28;20053;-74
2021/12/31 18:09:49;;;;;;;3.58;2.10;;;15.40;90.10;;;;;;10460377;28;20079;-74
2021/12/31 18:14:50;;;;;;;2.72;1.95;;;15.40;90.10;;;;;;10442232;28;20053;-74
2021/12/31 18:19:52;;;;;;;4.38;2.30;;;15.50;90.10;;;;;;10418481;28;20068;-74
2021/12/31 18:24:53;;;;;;;3.05;2.03;;;15.40;90.10;;;;;;10418094;28;20247;-74
2021/12/31 18:29:55;;;;;;;3.20;1.85;;;15.40;90.10;;;;;;10417640;28;20495;-74
2021/12/31 18:34:56;;;;;;;4.78;2.30;;;15.40;90.10;;;;;;10418281;28;20414;-74
2021/12/31 18:39:58;;;;;;;5.07;2.65;;;15.40;90.10;;;;;;10417841;28;20494;-75
2021/12/31 18:45:01;;;;;;;4.93;2.50;;;15.40;90.10;;;;;;10417682;28;20404;-74
2021/12/31 18:50:04;;;;;;;3.83;2.33;;;15.40;90.10;;;;;;10417411;28;20093;-73
2021/12/31 18:55:05;;;;;;;3.30;2.35;;;15.40;90.10;;;;;;10417290;28;20170;-75
2021/12/31 19:00:07;;;;;;;4.55;2.15;;;15.40;90.10;;;;;;10417171;28;20525;-74
2021/12/31 19:05:08;;;;;;;2.83;2.10;;;15.40;90.20;;;;;;10416868;28;20509;-74
2021/12/31 19:10:10;;;;;;;3.63;2.40;;;15.40;90.20;;;;;;10417003;28;20056;-74
2021/12/31 19:15:11;;;;;;;4.18;2.50;;;15.40;90.20;;;;;;10448822;28;20060;-74
2021/12/31 19:20:13;;;;;;;5.20;2.85;;;15.40;90.20;;;;;;10457208;28;20059;-74
2021/12/31 19:25:14;;;;;;;4.45;2.67;;;15.40;90.20;;;;;;10457466;28;20052;-74
2021/12/31 19:30:16;;;;;;;3.97;2.78;;;15.40;90.20;;;;;;10457361;28;20060;-74
2021/12/31 19:35:17;;;;;;;3.80;2.67;;;15.40;90.20;;;;;;10456973;28;20048;-74
2021/12/31 19:40:19;;;;;;;4.40;2.80;;;15.30;90.10;;;;;;10456860;28;20045;-74
2021/12/31 19:45:21;;;;;;;3.83;2.60;;;15.30;90.10;;;;;;10456482;28;20521;-74
2021/12/31 19:50:23;;;;;;;4.28;2.90;;;15.30;90.10;;;;;;10456286;28;20060;-75
2021/12/31 19:55:25;;;;;;;5.53;2.70;;;15.30;90.10;;;;;;10456064;28;20528;-74
2021/12/31 20:00:27;;;;;;;5.40;2.97;;;15.30;90.10;;;;;;10455645;28;20164;-74
2021/12/31 20:05:28;;;;;;;4.72;2.90;;;15.30;90.10;;;;;;10455502;28;20053;-74
2021/12/31 20:10:30;;;;;;;3.95;2.83;;;15.30;90.10;;;;;;10450129;28;20487;-75
2021/12/31 20:15:31;;;;;;;4.40;2.75;;;15.30;90.10;;;;;;10414192;28;20464;-75
2021/12/31 20:20:33;;;;;;;4.82;3.08;;;15.30;90.10;;;;;;10413720;28;20053;-74
2021/12/31 20:25:34;;;;;;;4.18;2.65;;;15.30;90.10;;;;;;10413886;28;20413;-74
2021/12/31 20:30:35;;;;;;;5.10;3.00;;;15.30;90.10;;;;;;10413631;28;20056;-74
2021/12/31 20:35:37;;;;;;;4.75;2.80;;;15.30;90.10;;;;;;10413792;28;20427;-74
2021/12/31 20:40:39;;;;;;;4.03;2.80;;;15.30;90.10;;;;;;10413436;28;20049;-73
2021/12/31 20:45:40;;;;;;;3.95;2.83;;;15.30;90.20;;;;;;10413035;28;20578;-74
2021/12/31 20:50:41;;;;;;;4.30;2.85;;;15.30;90.10;;;;;;10412585;28;20522;-73
2021/12/31 20:55:43;;;;;;;4.40;3.00;;;15.30;90.10;;;;;;10413565;28;20379;-73
2021/12/31 21:00:44;;;;;;;4.60;2.85;;;15.30;90.10;;;;;;10412688;28;20635;-73
2021/12/31 21:05:46;;;;;;;4.15;2.75;;;15.20;90.10;;;;;;10412454;28;20045;-73
2021/12/31 21:10:47;;;;;;;4.95;3.10;;;15.20;90.10;;;;;;10431793;28;20049;-73
2021/12/31 21:15:49;;;;;;;5.97;3.40;;;15.20;90.10;;;;;;10453731;28;20064;-74
2021/12/31 21:20:50;;;;;;;5.28;3.50;;;15.20;90.10;;;;;;10453205;28;20060;-74
2021/12/31 21:25:52;;;;;;;4.88;3.20;;;15.20;90.10;;;;;;10453796;28;20060;-73
2021/12/31 21:30:53;;;;;;;4.75;3.15;;;15.20;90.10;;;;;;10453623;28;20147;-74
2021/12/31 21:35:55;;;;;;;3.40;2.80;;;15.20;90.10;;;;;;10453220;28;20406;-74
2021/12/31 21:40:56;;;;;;;3.65;2.80;;;15.20;90.10;;;;;;10453102;28;20052;-74
2021/12/31 21:45:58;;;;;;;5.28;3.28;;;15.20;90.10;;;;;;10453533;28;20056;-74
2021/12/31 21:50:59;;;;;;;4.97;3.40;;;15.20;90.10;;;;;;10452774;28;20103;-74
2021/12/31 21:56:01;;;;;;;4.95;3.40;;;15.20;90.10;;;;;;10452811;28;20049;-74
2021/12/31 22:01:02;;;;;;;4.50;3.38;;;15.20;90.10;;;;;;10453977;28;20060;-74
2021/12/31 22:06:04;;;;;;;4.75;3.40;;;15.20;90.10;;;;;;10460538;28;20060;-73
2021/12/31 22:11:06;;;;;;;4.72;3.30;;;15.10;90.10;;;;;;10460545;28;20050;-74
2021/12/31 22:16:07;;;;;;;6.05;3.70;;;15.10;90.10;;;;;;10460143;28;20048;-74
2021/12/31 22:21:08;;;;;;;3.92;3.17;;;15.10;90.10;;;;;;10459812;28;20052;-74
2021/12/31 22:26:10;;;;;;;5.43;3.08;;;15.10;90.10;;;;;;10459608;28;20049;-74
2021/12/31 22:31:11;;;;;;;4.05;3.33;;;15.10;90.10;;;;;;10459462;28;20623;-75
2021/12/31 22:36:14;;;;;;;4.95;3.53;;;15.10;90.10;;;;;;10459595;28;20470;-75
2021/12/31 22:41:15;;;;;;;5.15;3.50;;;15.10;90.10;;;;;;10459337;28;20045;-74
2021/12/31 22:46:17;;;;;;;5.50;3.80;;;15.10;90.10;;;;;;10458663;28;20057;-74
2021/12/31 22:51:18;;;;;;;6.68;3.85;;;15.10;90.10;;;;;;10458830;28;20049;-75
2021/12/31 22:56:20;;;;;;;5.10;3.88;;;15.10;90.10;;;;;;10458510;28;20049;-74
2021/12/31 23:01:21;;;;;;;5.30;3.67;;;15.10;90.20;;;;;;10458149;28;20057;-74
2021/12/31 23:06:23;;;;;;;3.97;3.58;;;15.10;90.20;;;;;;10452072;28;20046;-74
2021/12/31 23:11:24;;;;;;;5.18;3.75;;;15.10;90.20;;;;;;10416217;28;20045;-74
2021/12/31 23:16:26;;;;;;;6.75;4.93;;;15.10;90.20;;;;;;10416520;28;20059;-74
2021/12/31 23:21:28;;;;;;;5.60;4.55;;;15.10;90.20;;;;;;10416397;28;20055;-75
2021/12/31 23:26:29;;;;;;;6.03;4.28;;;15.10;90.20;;;;;;10416068;28;20510;-74
2021/12/31 23:31:31;;;;;;;7.05;4.90;;;15.10;90.20;;;;;;10415972;28;20046;-74
2021/12/31 23:36:32;;;;;;;7.03;5.38;;;15.10;90.20;;;;;;10415882;28;20410;-74
2021/12/31 23:41:43;;;;;;;6.85;5.43;;;15.00;90.20;;;;;;10415606;28;20053;-75
2021/12/31 23:46:45;;;;;;;6.95;5.28;;;15.00;90.20;;;;;;10414887;28;20053;-74
2021/12/31 23:51:46;;;;;;;9.02;5.90;;;15.00;90.20;;;;;;10415458;28;20041;-74
2021/12/31 23:56:48;;;;;;;7.38;6.28;;;15.00;90.20;;;;;;10415046;28;20049;-75
